sensor_id;sensor_type;location;lat;lon;timestamp;temperature;humidity
25504;DHT22;13410;52.114;5.718;2023-07-22T00:02:24;22.30;99.90
25504;DHT22;13410;52.114;5.718;2023-07-22T00:04:50;22.20;99.90
25504;DHT22;13410;52.114;5.718;2023-07-22T00:07:15;22.00;99.90
25504;DHT22;13410;52.114;5.718;2023-07-22T00:09:42;22.20;99.90
25504;DHT22;13410;52.114;5.718;2023-07-22T00:12:08;22.30;99.90
25504;DHT22;13410;52.114;5.718;2023-07-22T00:14:38;22.10;99.90
25504;DHT22;13410;52.114;5.718;2023-07-22T00:17:05;22.20;99.90
25504;DHT22;13410;52.114;5.718;2023-07-22T00:19:30;22.30;99.90
25504;DHT22;13410;52.114;5.718;2023-07-22T00:21:56;22.20;99.90
25504;DHT22;13410;52.114;5.718;2023-07-22T00:24:21;22.20;99.90
25504;DHT22;13410;52.114;5.718;2023-07-22T00:26:48;22.30;99.90
25504;DHT22;13410;52.114;5.718;2023-07-22T00:29:15;22.20;99.90
25504;DHT22;13410;52.114;5.718;2023-07-22T00:31:41;22.10;99.90
25504;DHT22;13410;52.114;5.718;2023-07-22T00:34:06;22.30;99.90
25504;DHT22;13410;52.114;5.718;2023-07-22T00:36:32;22.00;99.90
25504;DHT22;13410;52.114;5.718;2023-07-22T00:38:57;22.10;99.90
25504;DHT22;13410;52.114;5.718;2023-07-22T00:41:23;22.20;99.90
25504;DHT22;13410;52.114;5.718;2023-07-22T00:43:49;22.20;99.90
25504;DHT22;13410;52.114;5.718;2023-07-22T00:46:14;22.20;99.90
25504;DHT22;13410;52.114;5.718;2023-07-22T00:48:40;22.10;99.90
25504;DHT22;13410;52.114;5.718;2023-07-22T00:51:07;22.00;99.90
25504;DHT22;13410;52.114;5.718;2023-07-22T00:53:32;22.10;99.90
25504;DHT22;13410;52.114;5.718;2023-07-22T00:55:58;22.30;99.90
25504;DHT22;13410;52.114;5.718;2023-07-22T00:58:24;21.90;99.90
25504;DHT22;13410;52.114;5.718;2023-07-22T01:00:49;22.00;99.90
25504;DHT22;13410;52.114;5.718;2023-07-22T01:03:15;22.00;99.90
25504;DHT22;13410;52.114;5.718;2023-07-22T01:05:41;21.90;99.90
25504;DHT22;13410;52.114;5.718;2023-07-22T01:08:07;22.00;99.90
25504;DHT22;13410;52.114;5.718;2023-07-22T01:10:32;22.40;99.90
25504;DHT22;13410;52.114;5.718;2023-07-22T01:12:58;22.30;99.90
25504;DHT22;13410;52.114;5.718;2023-07-22T01:15:25;21.90;99.90
25504;DHT22;13410;52.114;5.718;2023-07-22T01:17:51;22.10;99.90
25504;DHT22;13410;52.114;5.718;2023-07-22T01:20:18;21.80;99.90
25504;DHT22;13410;52.114;5.718;2023-07-22T01:22:52;22.10;99.90
25504;DHT22;13410;52.114;5.718;2023-07-22T01:25:20;21.70;99.90
25504;DHT22;13410;52.114;5.718;2023-07-22T01:27:47;21.40;99.90
25504;DHT22;13410;52.114;5.718;2023-07-22T01:30:13;21.40;99.90
25504;DHT22;13410;52.114;5.718;2023-07-22T01:32:39;21.40;99.90
25504;DHT22;13410;52.114;5.718;2023-07-22T01:35:06;21.30;99.90
25504;DHT22;13410;52.114;5.718;2023-07-22T01:37:33;21.40;99.90
25504;DHT22;13410;52.114;5.718;2023-07-22T01:39:59;21.50;99.90
25504;DHT22;13410;52.114;5.718;2023-07-22T01:42:24;21.70;99.90
25504;DHT22;13410;52.114;5.718;2023-07-22T01:44:50;21.30;99.90
25504;DHT22;13410;52.114;5.718;2023-07-22T01:47:15;21.20;99.90
25504;DHT22;13410;52.114;5.718;2023-07-22T01:49:41;21.50;99.90
25504;DHT22;13410;52.114;5.718;2023-07-22T01:52:07;21.60;99.90
25504;DHT22;13410;52.114;5.718;2023-07-22T01:54:33;21.90;99.90
25504;DHT22;13410;52.114;5.718;2023-07-22T01:56:58;22.10;99.90
25504;DHT22;13410;52.114;5.718;2023-07-22T01:59:25;21.60;99.90
25504;DHT22;13410;52.114;5.718;2023-07-22T02:01:50;21.40;99.90
25504;DHT22;13410;52.114;5.718;2023-07-22T02:04:17;21.40;99.90
25504;DHT22;13410;52.114;5.718;2023-07-22T02:06:43;21.20;99.90
25504;DHT22;13410;52.114;5.718;2023-07-22T02:09:10;21.70;99.90
25504;DHT22;13410;52.114;5.718;2023-07-22T02:11:38;21.80;99.90
25504;DHT22;13410;52.114;5.718;2023-07-22T02:14:04;21.50;99.90
25504;DHT22;13410;52.114;5.718;2023-07-22T02:16:33;21.40;99.90
25504;DHT22;13410;52.114;5.718;2023-07-22T02:18:59;21.30;99.90
25504;DHT22;13410;52.114;5.718;2023-07-22T02:21:24;21.10;99.90
25504;DHT22;13410;52.114;5.718;2023-07-22T02:23:51;20.90;99.90
25504;DHT22;13410;52.114;5.718;2023-07-22T02:26:17;21.00;99.90
25504;DHT22;13410;52.114;5.718;2023-07-22T02:28:42;20.90;99.90
25504;DHT22;13410;52.114;5.718;2023-07-22T02:31:08;20.90;99.90
25504;DHT22;13410;52.114;5.718;2023-07-22T02:33:34;20.60;99.90
25504;DHT22;13410;52.114;5.718;2023-07-22T02:35:59;20.30;99.90
25504;DHT22;13410;52.114;5.718;2023-07-22T02:38:25;20.10;99.90
25504;DHT22;13410;52.114;5.718;2023-07-22T02:40:51;20.50;99.90
25504;DHT22;13410;52.114;5.718;2023-07-22T02:43:17;20.20;99.90
25504;DHT22;13410;52.114;5.718;2023-07-22T02:45:42;20.20;99.90
25504;DHT22;13410;52.114;5.718;2023-07-22T02:48:08;19.90;99.90
25504;DHT22;13410;52.114;5.718;2023-07-22T02:50:34;20.20;99.90
25504;DHT22;13410;52.114;5.718;2023-07-22T02:53:00;20.50;99.90
25504;DHT22;13410;52.114;5.718;2023-07-22T02:55:26;20.70;99.90
25504;DHT22;13410;52.114;5.718;2023-07-22T02:57:51;20.90;99.90
25504;DHT22;13410;52.114;5.718;2023-07-22T03:00:19;20.70;99.90
25504;DHT22;13410;52.114;5.718;2023-07-22T03:02:52;20.50;99.90
25504;DHT22;13410;52.114;5.718;2023-07-22T03:05:18;20.20;99.90
25504;DHT22;13410;52.114;5.718;2023-07-22T03:07:44;20.40;99.90
25504;DHT22;13410;52.114;5.718;2023-07-22T03:10:10;20.40;99.90
25504;DHT22;13410;52.114;5.718;2023-07-22T03:12:36;20.50;99.90
25504;DHT22;13410;52.114;5.718;2023-07-22T03:15:02;20.20;99.90
25504;DHT22;13410;52.114;5.718;2023-07-22T03:17:34;20.00;99.90
25504;DHT22;13410;52.114;5.718;2023-07-22T03:19:59;20.10;99.90
25504;DHT22;13410;52.114;5.718;2023-07-22T03:22:26;20.20;99.90
25504;DHT22;13410;52.114;5.718;2023-07-22T03:24:51;20.20;99.90
25504;DHT22;13410;52.114;5.718;2023-07-22T03:27:17;20.40;99.90
25504;DHT22;13410;52.114;5.718;2023-07-22T03:29:43;20.40;99.90
25504;DHT22;13410;52.114;5.718;2023-07-22T03:32:08;20.50;99.90
25504;DHT22;13410;52.114;5.718;2023-07-22T03:34:34;20.10;99.90
25504;DHT22;13410;52.114;5.718;2023-07-22T03:37:00;20.30;99.90
25504;DHT22;13410;52.114;5.718;2023-07-22T03:39:26;20.30;99.90
25504;DHT22;13410;52.114;5.718;2023-07-22T03:41:51;20.60;99.90
25504;DHT22;13410;52.114;5.718;2023-07-22T03:44:17;21.00;99.90
25504;DHT22;13410;52.114;5.718;2023-07-22T03:46:43;21.20;99.90
25504;DHT22;13410;52.114;5.718;2023-07-22T03:49:08;21.20;99.90
25504;DHT22;13410;52.114;5.718;2023-07-22T03:51:34;21.20;99.90
25504;DHT22;13410;52.114;5.718;2023-07-22T03:53:59;21.10;99.90
25504;DHT22;13410;52.114;5.718;2023-07-22T03:56:25;20.70;99.90
25504;DHT22;13410;52.114;5.718;2023-07-22T03:58:53;20.50;99.90
25504;DHT22;13410;52.114;5.718;2023-07-22T04:01:19;20.90;99.90
25504;DHT22;13410;52.114;5.718;2023-07-22T04:03:45;21.10;99.90
25504;DHT22;13410;52.114;5.718;2023-07-22T04:06:10;21.20;99.90
25504;DHT22;13410;52.114;5.718;2023-07-22T04:08:36;21.30;99.90
25504;DHT22;13410;52.114;5.718;2023-07-22T04:11:02;21.30;99.90
25504;DHT22;13410;52.114;5.718;2023-07-22T04:13:29;21.20;99.90
25504;DHT22;13410;52.114;5.718;2023-07-22T04:15:56;21.50;99.90
25504;DHT22;13410;52.114;5.718;2023-07-22T04:18:22;21.60;99.90
25504;DHT22;13410;52.114;5.718;2023-07-22T04:20:48;21.30;99.90
25504;DHT22;13410;52.114;5.718;2023-07-22T04:23:14;21.50;99.90
25504;DHT22;13410;52.114;5.718;2023-07-22T04:25:44;21.70;99.90
25504;DHT22;13410;52.114;5.718;2023-07-22T04:28:10;21.70;99.90
25504;DHT22;13410;52.114;5.718;2023-07-22T04:30:36;21.70;99.90
25504;DHT22;13410;52.114;5.718;2023-07-22T04:33:03;21.90;99.90
25504;DHT22;13410;52.114;5.718;2023-07-22T04:35:32;21.70;99.90
25504;DHT22;13410;52.114;5.718;2023-07-22T04:37:59;21.90;99.90
25504;DHT22;13410;52.114;5.718;2023-07-22T04:40:25;21.70;99.90
25504;DHT22;13410;52.114;5.718;2023-07-22T04:42:51;21.90;99.90
25504;DHT22;13410;52.114;5.718;2023-07-22T04:45:17;21.90;99.90
25504;DHT22;13410;52.114;5.718;2023-07-22T04:47:45;22.00;99.90
25504;DHT22;13410;52.114;5.718;2023-07-22T04:50:13;22.40;99.90
25504;DHT22;13410;52.114;5.718;2023-07-22T04:52:41;22.70;99.90
25504;DHT22;13410;52.114;5.718;2023-07-22T04:55:07;22.80;99.90
25504;DHT22;13410;52.114;5.718;2023-07-22T04:57:36;22.90;99.90
25504;DHT22;13410;52.114;5.718;2023-07-22T05:00:02;23.10;99.90
25504;DHT22;13410;52.114;5.718;2023-07-22T05:02:32;23.10;99.90
25504;DHT22;13410;52.114;5.718;2023-07-22T05:04:57;23.10;99.90
25504;DHT22;13410;52.114;5.718;2023-07-22T05:07:23;23.10;99.90
25504;DHT22;13410;52.114;5.718;2023-07-22T05:09:49;23.10;99.90
25504;DHT22;13410;52.114;5.718;2023-07-22T05:12:15;23.30;99.90
25504;DHT22;13410;52.114;5.718;2023-07-22T05:14:40;23.20;99.90
25504;DHT22;13410;52.114;5.718;2023-07-22T05:17:06;23.10;99.90
25504;DHT22;13410;52.114;5.718;2023-07-22T05:19:32;23.10;99.90
25504;DHT22;13410;52.114;5.718;2023-07-22T05:21:57;22.90;99.90
25504;DHT22;13410;52.114;5.718;2023-07-22T05:24:23;23.10;99.90
25504;DHT22;13410;52.114;5.718;2023-07-22T05:26:48;23.20;99.90
25504;DHT22;13410;52.114;5.718;2023-07-22T05:29:14;23.00;99.90
25504;DHT22;13410;52.114;5.718;2023-07-22T05:31:40;23.20;99.90
25504;DHT22;13410;52.114;5.718;2023-07-22T05:34:05;23.30;99.90
25504;DHT22;13410;52.114;5.718;2023-07-22T05:36:31;23.40;99.90
25504;DHT22;13410;52.114;5.718;2023-07-22T05:38:57;23.50;99.90
25504;DHT22;13410;52.114;5.718;2023-07-22T05:41:23;23.60;99.90
25504;DHT22;13410;52.114;5.718;2023-07-22T05:43:54;23.70;99.90
25504;DHT22;13410;52.114;5.718;2023-07-22T05:46:21;23.70;99.90
25504;DHT22;13410;52.114;5.718;2023-07-22T05:48:46;23.70;99.90
25504;DHT22;13410;52.114;5.718;2023-07-22T05:51:12;23.30;99.90
25504;DHT22;13410;52.114;5.718;2023-07-22T05:53:39;23.40;99.90
25504;DHT22;13410;52.114;5.718;2023-07-22T05:56:04;23.40;99.90
25504;DHT22;13410;52.114;5.718;2023-07-22T05:58:30;23.70;99.90
25504;DHT22;13410;52.114;5.718;2023-07-22T06:00:56;23.50;99.90
25504;DHT22;13410;52.114;5.718;2023-07-22T06:03:22;23.70;99.90
25504;DHT22;13410;52.114;5.718;2023-07-22T06:05:47;23.70;99.90
25504;DHT22;13410;52.114;5.718;2023-07-22T06:08:13;23.70;99.90
25504;DHT22;13410;52.114;5.718;2023-07-22T06:10:42;23.80;99.90
25504;DHT22;13410;52.114;5.718;2023-07-22T06:13:09;24.10;99.90
25504;DHT22;13410;52.114;5.718;2023-07-22T06:15:35;24.10;99.90
25504;DHT22;13410;52.114;5.718;2023-07-22T06:18:01;24.20;99.90
25504;DHT22;13410;52.114;5.718;2023-07-22T06:20:28;24.10;99.90
25504;DHT22;13410;52.114;5.718;2023-07-22T06:22:53;24.10;99.90
25504;DHT22;13410;52.114;5.718;2023-07-22T06:25:20;24.20;99.90
25504;DHT22;13410;52.114;5.718;2023-07-22T06:27:45;24.30;99.90
25504;DHT22;13410;52.114;5.718;2023-07-22T06:30:11;24.10;99.90
25504;DHT22;13410;52.114;5.718;2023-07-22T06:32:38;23.70;99.90
25504;DHT22;13410;52.114;5.718;2023-07-22T06:35:05;23.90;99.90
25504;DHT22;13410;52.114;5.718;2023-07-22T06:37:34;24.00;99.90
25504;DHT22;13410;52.114;5.718;2023-07-22T06:40:01;24.20;99.90
25504;DHT22;13410;52.114;5.718;2023-07-22T06:42:28;24.40;99.90
25504;DHT22;13410;52.114;5.718;2023-07-22T06:44:53;24.60;99.90
25504;DHT22;13410;52.114;5.718;2023-07-22T06:47:19;24.90;99.90
25504;DHT22;13410;52.114;5.718;2023-07-22T06:49:44;25.50;99.90
25504;DHT22;13410;52.114;5.718;2023-07-22T06:52:10;26.20;99.90
25504;DHT22;13410;52.114;5.718;2023-07-22T06:54:35;26.70;99.90
25504;DHT22;13410;52.114;5.718;2023-07-22T06:57:02;27.40;99.90
25504;DHT22;13410;52.114;5.718;2023-07-22T06:59:28;27.70;99.90
25504;DHT22;13410;52.114;5.718;2023-07-22T07:01:54;28.20;99.90
25504;DHT22;13410;52.114;5.718;2023-07-22T07:04:21;28.80;99.90
25504;DHT22;13410;52.114;5.718;2023-07-22T07:06:46;29.40;99.90
25504;DHT22;13410;52.114;5.718;2023-07-22T07:09:12;29.70;99.90
25504;DHT22;13410;52.114;5.718;2023-07-22T07:11:40;30.00;99.90
25504;DHT22;13410;52.114;5.718;2023-07-22T07:14:05;30.20;99.90
25504;DHT22;13410;52.114;5.718;2023-07-22T07:16:31;30.70;99.90
25504;DHT22;13410;52.114;5.718;2023-07-22T07:18:58;30.70;99.90
25504;DHT22;13410;52.114;5.718;2023-07-22T07:21:24;30.80;99.90
25504;DHT22;13410;52.114;5.718;2023-07-22T07:23:51;30.90;99.90
25504;DHT22;13410;52.114;5.718;2023-07-22T07:26:17;31.00;99.90
25504;DHT22;13410;52.114;5.718;2023-07-22T07:28:43;30.70;99.90
25504;DHT22;13410;52.114;5.718;2023-07-22T07:31:09;30.50;99.90
25504;DHT22;13410;52.114;5.718;2023-07-22T07:33:35;30.10;99.90
25504;DHT22;13410;52.114;5.718;2023-07-22T07:36:04;29.90;99.90
25504;DHT22;13410;52.114;5.718;2023-07-22T07:38:30;29.50;99.90
25504;DHT22;13410;52.114;5.718;2023-07-22T07:41:01;29.10;99.90
25504;DHT22;13410;52.114;5.718;2023-07-22T07:43:26;28.80;99.90
25504;DHT22;13410;52.114;5.718;2023-07-22T07:46:20;28.90;99.90
25504;DHT22;13410;52.114;5.718;2023-07-22T07:48:52;28.60;99.90
25504;DHT22;13410;52.114;5.718;2023-07-22T07:51:19;28.30;99.90
25504;DHT22;13410;52.114;5.718;2023-07-22T07:53:46;28.40;99.90
25504;DHT22;13410;52.114;5.718;2023-07-22T07:56:16;28.10;99.90
25504;DHT22;13410;52.114;5.718;2023-07-22T07:58:44;28.10;99.90
25504;DHT22;13410;52.114;5.718;2023-07-22T08:01:10;28.00;99.90
25504;DHT22;13410;52.114;5.718;2023-07-22T08:03:36;28.20;99.90
25504;DHT22;13410;52.114;5.718;2023-07-22T08:06:04;28.40;99.90
25504;DHT22;13410;52.114;5.718;2023-07-22T08:08:30;28.50;99.90
25504;DHT22;13410;52.114;5.718;2023-07-22T08:11:10;28.60;99.90
25504;DHT22;13410;52.114;5.718;2023-07-22T08:13:37;28.50;99.90
25504;DHT22;13410;52.114;5.718;2023-07-22T08:16:04;28.60;99.90
25504;DHT22;13410;52.114;5.718;2023-07-22T08:18:30;28.50;99.90
25504;DHT22;13410;52.114;5.718;2023-07-22T08:20:56;28.10;99.90
25504;DHT22;13410;52.114;5.718;2023-07-22T08:23:22;28.10;99.90
25504;DHT22;13410;52.114;5.718;2023-07-22T08:25:48;27.70;99.90
25504;DHT22;13410;52.114;5.718;2023-07-22T08:28:16;27.60;99.90
25504;DHT22;13410;52.114;5.718;2023-07-22T08:30:41;27.00;99.90
25504;DHT22;13410;52.114;5.718;2023-07-22T08:33:09;26.80;99.90
25504;DHT22;13410;52.114;5.718;2023-07-22T08:35:35;26.80;99.90
25504;DHT22;13410;52.114;5.718;2023-07-22T08:38:01;26.60;99.90
25504;DHT22;13410;52.114;5.718;2023-07-22T08:40:32;26.50;99.90
25504;DHT22;13410;52.114;5.718;2023-07-22T08:42:58;26.60;99.90
25504;DHT22;13410;52.114;5.718;2023-07-22T08:45:26;26.50;99.90
25504;DHT22;13410;52.114;5.718;2023-07-22T08:47:54;26.50;99.90
25504;DHT22;13410;52.114;5.718;2023-07-22T08:50:22;26.60;99.90
25504;DHT22;13410;52.114;5.718;2023-07-22T08:52:51;26.60;99.90
25504;DHT22;13410;52.114;5.718;2023-07-22T08:55:16;26.80;99.90
25504;DHT22;13410;52.114;5.718;2023-07-22T08:57:42;27.00;99.90
25504;DHT22;13410;52.114;5.718;2023-07-22T09:00:09;27.20;99.90
25504;DHT22;13410;52.114;5.718;2023-07-22T09:02:37;27.60;99.90
25504;DHT22;13410;52.114;5.718;2023-07-22T09:05:03;27.40;99.90
25504;DHT22;13410;52.114;5.718;2023-07-22T09:07:29;27.00;99.90
25504;DHT22;13410;52.114;5.718;2023-07-22T09:09:57;26.90;99.90
25504;DHT22;13410;52.114;5.718;2023-07-22T09:12:23;26.90;99.90
25504;DHT22;13410;52.114;5.718;2023-07-22T09:14:50;26.80;99.90
25504;DHT22;13410;52.114;5.718;2023-07-22T09:17:16;26.60;99.90
25504;DHT22;13410;52.114;5.718;2023-07-22T09:19:41;26.70;99.90
25504;DHT22;13410;52.114;5.718;2023-07-22T09:22:10;26.50;99.90
25504;DHT22;13410;52.114;5.718;2023-07-22T09:24:35;26.90;99.90
25504;DHT22;13410;52.114;5.718;2023-07-22T09:27:01;27.10;99.90
25504;DHT22;13410;52.114;5.718;2023-07-22T09:29:34;27.30;99.90
25504;DHT22;13410;52.114;5.718;2023-07-22T09:32:00;27.40;99.90
25504;DHT22;13410;52.114;5.718;2023-07-22T09:34:28;27.60;99.90
25504;DHT22;13410;52.114;5.718;2023-07-22T09:36:55;27.80;99.90
25504;DHT22;13410;52.114;5.718;2023-07-22T09:39:23;28.00;99.90
25504;DHT22;13410;52.114;5.718;2023-07-22T09:41:49;28.00;99.90
25504;DHT22;13410;52.114;5.718;2023-07-22T09:44:15;27.80;99.90
25504;DHT22;13410;52.114;5.718;2023-07-22T09:46:41;27.50;99.90
25504;DHT22;13410;52.114;5.718;2023-07-22T09:49:10;27.50;99.90
25504;DHT22;13410;52.114;5.718;2023-07-22T09:51:40;27.70;99.90
25504;DHT22;13410;52.114;5.718;2023-07-22T09:54:07;27.90;99.90
25504;DHT22;13410;52.114;5.718;2023-07-22T09:56:45;28.10;99.90
25504;DHT22;13410;52.114;5.718;2023-07-22T09:59:12;28.30;99.90
25504;DHT22;13410;52.114;5.718;2023-07-22T10:01:38;28.30;99.90
25504;DHT22;13410;52.114;5.718;2023-07-22T10:04:06;28.20;99.90
25504;DHT22;13410;52.114;5.718;2023-07-22T10:06:35;28.00;99.90
25504;DHT22;13410;52.114;5.718;2023-07-22T10:09:07;27.90;99.90
25504;DHT22;13410;52.114;5.718;2023-07-22T10:11:35;27.60;99.90
25504;DHT22;13410;52.114;5.718;2023-07-22T10:14:05;27.10;99.90
25504;DHT22;13410;52.114;5.718;2023-07-22T10:16:31;26.90;99.90
25504;DHT22;13410;52.114;5.718;2023-07-22T10:19:02;26.70;99.90
25504;DHT22;13410;52.114;5.718;2023-07-22T10:21:28;26.70;99.90
25504;DHT22;13410;52.114;5.718;2023-07-22T10:23:54;26.50;99.90
25504;DHT22;13410;52.114;5.718;2023-07-22T10:26:20;26.50;99.90
25504;DHT22;13410;52.114;5.718;2023-07-22T10:28:48;26.40;99.90
25504;DHT22;13410;52.114;5.718;2023-07-22T10:31:14;26.50;99.90
25504;DHT22;13410;52.114;5.718;2023-07-22T10:33:45;26.50;99.90
25504;DHT22;13410;52.114;5.718;2023-07-22T10:36:17;26.30;99.90
25504;DHT22;13410;52.114;5.718;2023-07-22T10:38:55;26.00;99.90
25504;DHT22;13410;52.114;5.718;2023-07-22T10:41:24;26.00;99.90
25504;DHT22;13410;52.114;5.718;2023-07-22T10:43:59;26.00;99.90
25504;DHT22;13410;52.114;5.718;2023-07-22T10:46:35;26.20;99.90
25504;DHT22;13410;52.114;5.718;2023-07-22T10:49:15;26.40;99.90
25504;DHT22;13410;52.114;5.718;2023-07-22T10:51:47;26.50;99.90
25504;DHT22;13410;52.114;5.718;2023-07-22T10:54:15;26.40;99.90
25504;DHT22;13410;52.114;5.718;2023-07-22T10:57:02;26.70;99.90
25504;DHT22;13410;52.114;5.718;2023-07-22T10:59:32;26.80;99.90
25504;DHT22;13410;52.114;5.718;2023-07-22T11:01:58;27.00;99.90
25504;DHT22;13410;52.114;5.718;2023-07-22T11:04:24;27.00;99.90
25504;DHT22;13410;52.114;5.718;2023-07-22T11:07:04;27.20;99.90
25504;DHT22;13410;52.114;5.718;2023-07-22T11:09:34;27.00;99.90
25504;DHT22;13410;52.114;5.718;2023-07-22T11:12:13;26.90;99.90
25504;DHT22;13410;52.114;5.718;2023-07-22T11:17:09;26.50;99.90
25504;DHT22;13410;52.114;5.718;2023-07-22T11:19:36;25.90;99.90
25504;DHT22;13410;52.114;5.718;2023-07-22T11:22:02;25.50;99.90
25504;DHT22;13410;52.114;5.718;2023-07-22T11:24:29;25.30;99.90
25504;DHT22;13410;52.114;5.718;2023-07-22T11:26:55;25.20;99.90
25504;DHT22;13410;52.114;5.718;2023-07-22T11:29:21;25.10;99.90
25504;DHT22;13410;52.114;5.718;2023-07-22T11:31:49;24.90;99.90
25504;DHT22;13410;52.114;5.718;2023-07-22T11:34:17;24.90;99.90
25504;DHT22;13410;52.114;5.718;2023-07-22T11:36:44;25.10;99.90
25504;DHT22;13410;52.114;5.718;2023-07-22T11:39:15;25.10;99.90
25504;DHT22;13410;52.114;5.718;2023-07-22T11:41:42;25.30;99.90
25504;DHT22;13410;52.114;5.718;2023-07-22T11:44:15;25.30;99.90
25504;DHT22;13410;52.114;5.718;2023-07-22T11:47:06;25.30;99.90
25504;DHT22;13410;52.114;5.718;2023-07-22T11:49:41;25.50;99.90
25504;DHT22;13410;52.114;5.718;2023-07-22T11:52:11;25.50;99.90
25504;DHT22;13410;52.114;5.718;2023-07-22T11:54:42;25.30;99.90
25504;DHT22;13410;52.114;5.718;2023-07-22T11:59:46;25.80;99.90
25504;DHT22;13410;52.114;5.718;2023-07-22T12:02:19;26.10;99.90
25504;DHT22;13410;52.114;5.718;2023-07-22T12:04:55;25.90;99.90
25504;DHT22;13410;52.114;5.718;2023-07-22T12:09:54;26.50;99.90
25504;DHT22;13410;52.114;5.718;2023-07-22T12:12:41;26.50;99.90
25504;DHT22;13410;52.114;5.718;2023-07-22T12:15:16;26.40;99.90
25504;DHT22;13410;52.114;5.718;2023-07-22T12:18:01;26.40;99.90
25504;DHT22;13410;52.114;5.718;2023-07-22T12:20:30;26.30;99.90
25504;DHT22;13410;52.114;5.718;2023-07-22T12:22:57;26.20;99.90
25504;DHT22;13410;52.114;5.718;2023-07-22T12:25:25;26.00;99.90
25504;DHT22;13410;52.114;5.718;2023-07-22T12:27:51;25.60;99.90
25504;DHT22;13410;52.114;5.718;2023-07-22T12:30:20;25.30;99.90
25504;DHT22;13410;52.114;5.718;2023-07-22T12:32:49;25.30;99.90
25504;DHT22;13410;52.114;5.718;2023-07-22T12:35:14;24.50;99.90
25504;DHT22;13410;52.114;5.718;2023-07-22T12:37:40;24.00;99.90
25504;DHT22;13410;52.114;5.718;2023-07-22T12:40:19;23.70;99.90
25504;DHT22;13410;52.114;5.718;2023-07-22T12:42:48;23.40;99.90
25504;DHT22;13410;52.114;5.718;2023-07-22T12:45:15;22.90;99.90
25504;DHT22;13410;52.114;5.718;2023-07-22T12:47:43;22.70;99.90
25504;DHT22;13410;52.114;5.718;2023-07-22T12:50:09;22.80;99.90
25504;DHT22;13410;52.114;5.718;2023-07-22T12:52:36;22.90;99.90
25504;DHT22;13410;52.114;5.718;2023-07-22T12:55:02;23.00;99.90
25504;DHT22;13410;52.114;5.718;2023-07-22T12:57:28;23.20;99.90
25504;DHT22;13410;52.114;5.718;2023-07-22T12:59:53;23.30;99.90
25504;DHT22;13410;52.114;5.718;2023-07-22T13:02:19;23.50;99.90
25504;DHT22;13410;52.114;5.718;2023-07-22T13:04:45;23.70;99.90
25504;DHT22;13410;52.114;5.718;2023-07-22T13:07:11;23.80;99.90
25504;DHT22;13410;52.114;5.718;2023-07-22T13:09:36;24.20;99.90
25504;DHT22;13410;52.114;5.718;2023-07-22T13:12:02;24.30;99.90
25504;DHT22;13410;52.114;5.718;2023-07-22T13:14:28;24.50;99.90
25504;DHT22;13410;52.114;5.718;2023-07-22T13:16:53;24.70;99.90
25504;DHT22;13410;52.114;5.718;2023-07-22T13:19:19;24.80;99.90
25504;DHT22;13410;52.114;5.718;2023-07-22T13:21:44;24.90;99.90
25504;DHT22;13410;52.114;5.718;2023-07-22T13:24:10;24.80;99.90
25504;DHT22;13410;52.114;5.718;2023-07-22T13:26:44;24.90;99.90
25504;DHT22;13410;52.114;5.718;2023-07-22T13:29:19;25.10;99.90
25504;DHT22;13410;52.114;5.718;2023-07-22T13:32:03;25.30;99.90
25504;DHT22;13410;52.114;5.718;2023-07-22T13:34:29;25.60;99.90
25504;DHT22;13410;52.114;5.718;2023-07-22T13:36:55;25.60;99.90
25504;DHT22;13410;52.114;5.718;2023-07-22T13:39:21;25.60;99.90
25504;DHT22;13410;52.114;5.718;2023-07-22T13:41:46;25.60;99.90
25504;DHT22;13410;52.114;5.718;2023-07-22T13:44:12;25.50;99.90
25504;DHT22;13410;52.114;5.718;2023-07-22T13:46:47;25.30;99.90
25504;DHT22;13410;52.114;5.718;2023-07-22T13:49:13;25.10;99.90
25504;DHT22;13410;52.114;5.718;2023-07-22T13:51:43;24.80;99.90
25504;DHT22;13410;52.114;5.718;2023-07-22T13:54:11;24.70;99.90
25504;DHT22;13410;52.114;5.718;2023-07-22T13:56:37;24.50;99.90
25504;DHT22;13410;52.114;5.718;2023-07-22T13:59:05;24.30;99.90
25504;DHT22;13410;52.114;5.718;2023-07-22T14:01:37;24.10;99.90
25504;DHT22;13410;52.114;5.718;2023-07-22T14:04:13;24.00;99.90
25504;DHT22;13410;52.114;5.718;2023-07-22T14:06:41;23.60;99.90
25504;DHT22;13410;52.114;5.718;2023-07-22T14:09:09;23.50;99.90
25504;DHT22;13410;52.114;5.718;2023-07-22T14:11:35;23.10;99.90
25504;DHT22;13410;52.114;5.718;2023-07-22T14:14:01;22.90;99.90
25504;DHT22;13410;52.114;5.718;2023-07-22T14:16:26;22.40;99.90
25504;DHT22;13410;52.114;5.718;2023-07-22T14:18:55;22.30;99.90
25504;DHT22;13410;52.114;5.718;2023-07-22T14:21:26;22.60;99.90
25504;DHT22;13410;52.114;5.718;2023-07-22T14:23:55;22.90;99.90
25504;DHT22;13410;52.114;5.718;2023-07-22T14:29:12;22.80;99.90
25504;DHT22;13410;52.114;5.718;2023-07-22T14:32:02;22.90;99.90
25504;DHT22;13410;52.114;5.718;2023-07-22T14:34:32;23.10;99.90
25504;DHT22;13410;52.114;5.718;2023-07-22T14:37:00;23.60;99.90
25504;DHT22;13410;52.114;5.718;2023-07-22T14:39:26;24.00;99.90
25504;DHT22;13410;52.114;5.718;2023-07-22T14:41:52;24.10;99.90
25504;DHT22;13410;52.114;5.718;2023-07-22T14:44:18;24.70;99.90
25504;DHT22;13410;52.114;5.718;2023-07-22T14:46:45;24.90;99.90
25504;DHT22;13410;52.114;5.718;2023-07-22T14:49:20;25.10;99.90
25504;DHT22;13410;52.114;5.718;2023-07-22T14:51:53;25.10;99.90
25504;DHT22;13410;52.114;5.718;2023-07-22T14:57:41;25.20;99.90
25504;DHT22;13410;52.114;5.718;2023-07-22T15:00:09;25.40;99.90
25504;DHT22;13410;52.114;5.718;2023-07-22T15:02:39;25.30;99.90
25504;DHT22;13410;52.114;5.718;2023-07-22T15:05:07;25.30;99.90
25504;DHT22;13410;52.114;5.718;2023-07-22T15:07:40;25.20;99.90
25504;DHT22;13410;52.114;5.718;2023-07-22T15:10:09;25.10;99.90
25504;DHT22;13410;52.114;5.718;2023-07-22T15:12:34;25.30;99.90
25504;DHT22;13410;52.114;5.718;2023-07-22T15:15:02;25.20;99.90
25504;DHT22;13410;52.114;5.718;2023-07-22T15:17:32;25.40;99.90
25504;DHT22;13410;52.114;5.718;2023-07-22T15:20:01;25.70;99.90
25504;DHT22;13410;52.114;5.718;2023-07-22T15:22:27;25.80;99.90
25504;DHT22;13410;52.114;5.718;2023-07-22T15:24:53;25.80;99.90
25504;DHT22;13410;52.114;5.718;2023-07-22T15:27:22;26.20;99.90
25504;DHT22;13410;52.114;5.718;2023-07-22T15:29:50;25.80;99.90
25504;DHT22;13410;52.114;5.718;2023-07-22T15:32:16;25.60;99.90
25504;DHT22;13410;52.114;5.718;2023-07-22T15:34:41;25.60;99.90
25504;DHT22;13410;52.114;5.718;2023-07-22T15:37:10;25.50;99.90
25504;DHT22;13410;52.114;5.718;2023-07-22T15:39:38;25.60;99.90
25504;DHT22;13410;52.114;5.718;2023-07-22T15:42:06;25.50;99.90
25504;DHT22;13410;52.114;5.718;2023-07-22T15:44:37;25.70;99.90
25504;DHT22;13410;52.114;5.718;2023-07-22T15:47:05;25.60;99.90